Time;durP1;ratioP1;P1;durP2;ratioP2;P2;SDS_P1;SDS_P2;PMS_P1;PMS_P2;Temp;Humidity;BMP_temperature;BMP_pressure;BME280_temperature;BME280_humidity;BME280_pressure;Samples;Min_cycle;Max_cycle;Signal;HPM_P1;HPM_P2
2021/10/07 00:00:49;;;;;;;4.45;1.25;;;;;;;;;;4999338;28;20179;-79
2021/10/07 00:03:15;;;;;;;4.20;1.48;;;;;;;;;;4992491;28;20068;-79
2021/10/07 00:05:41;;;;;;;3.47;1.48;;;;;;;;;;4999735;28;20042;-79
2021/10/07 00:08:07;;;;;;;6.43;1.25;;;;;;;;;;4998870;28;20058;-79
2021/10/07 00:10:33;;;;;;;3.92;1.30;;;;;;;;;;4999160;28;20026;-79
2021/10/07 00:12:59;;;;;;;4.80;1.13;;;;;;;;;;4999423;28;20038;-80
2021/10/07 00:15:25;;;;;;;2.75;1.15;;;;;;;;;;4999893;28;20483;-80
2021/10/07 00:17:51;;;;;;;3.95;1.17;;;;;;;;;;4999280;28;20045;-79
2021/10/07 00:20:17;;;;;;;6.28;1.75;;;;;;;;;;4998831;28;20027;-80
2021/10/07 00:22:45;;;;;;;6.72;1.27;;;;;;;;;;4999623;28;20033;-80
2021/10/07 00:25:13;;;;;;;3.35;1.30;;;;;;;;;;4999521;28;20034;-80
2021/10/07 00:27:39;;;;;;;5.03;1.35;;;;;;;;;;4999138;28;20037;-79
2021/10/07 00:30:11;;;;;;;6.65;1.27;;;;;;;;;;5001522;28;20037;-79
2021/10/07 00:32:45;;;;;;;4.75;1.75;;;;;;;;;;4986005;28;20050;-79
2021/10/07 00:40:40;;;;;;;5.13;1.58;;;;;;;;;;4998791;28;20517;-79
2021/10/07 00:43:06;;;;;;;6.32;1.85;;;;;;;;;;4997853;28;20040;-79
2021/10/07 00:45:32;;;;;;;3.67;1.20;;;;;;;;;;4999812;28;20094;-79
2021/10/07 00:47:58;;;;;;;5.95;1.48;;;;;;;;;;4998993;28;20065;-79
2021/10/07 00:50:24;;;;;;;5.88;1.48;;;;;;;;;;4998467;28;20038;-79
2021/10/07 00:52:50;;;;;;;3.65;2.00;;;;;;;;;;4998663;28;20080;-79
2021/10/07 00:55:17;;;;;;;6.30;1.55;;;;;;;;;;4999019;28;20022;-79
2021/10/07 00:57:43;;;;;;;4.28;1.65;;;;;;;;;;4997782;28;20105;-79
2021/10/07 01:00:09;;;;;;;8.32;1.65;;;;;;;;;;4999601;28;20023;-78
2021/10/07 01:02:35;;;;;;;4.43;1.40;;;;;;;;;;5000989;28;20046;-78
2021/10/07 01:05:01;;;;;;;5.40;1.70;;;;;;;;;;5001490;28;20042;-79
2021/10/07 01:07:27;;;;;;;10.27;1.67;;;;;;;;;;4992442;28;20395;-79
2021/10/07 01:09:53;;;;;;;7.93;2.22;;;;;;;;;;4996320;28;20093;-79
2021/10/07 01:12:19;;;;;;;7.43;1.65;;;;;;;;;;4997336;28;20030;-79
2021/10/07 01:14:47;;;;;;;8.65;1.90;;;;;;;;;;4980762;28;20035;-79
2021/10/07 01:17:15;;;;;;;5.05;2.13;;;;;;;;;;4997640;28;20126;-79
2021/10/07 01:19:42;;;;;;;7.35;2.10;;;;;;;;;;4997427;28;20097;-79
2021/10/07 01:22:08;;;;;;;5.82;2.00;;;;;;;;;;4997295;28;20027;-79
2021/10/07 01:24:34;;;;;;;13.00;2.65;;;;;;;;;;4997871;28;20029;-79
2021/10/07 01:27:00;;;;;;;4.63;1.50;;;;;;;;;;4996441;28;20034;-79
2021/10/07 01:29:27;;;;;;;7.70;2.10;;;;;;;;;;4996163;28;20133;-79
2021/10/07 01:31:53;;;;;;;6.57;1.90;;;;;;;;;;4996647;28;20081;-79
2021/10/07 01:34:22;;;;;;;7.28;1.98;;;;;;;;;;4997788;28;20027;-79
2021/10/07 01:36:49;;;;;;;3.75;1.80;;;;;;;;;;4997758;28;20503;-79
2021/10/07 01:39:14;;;;;;;6.82;1.98;;;;;;;;;;4997320;28;20077;-79
2021/10/07 01:41:40;;;;;;;7.03;1.80;;;;;;;;;;4997474;28;20030;-79
2021/10/07 01:44:06;;;;;;;6.18;2.00;;;;;;;;;;4992988;28;20043;-79
2021/10/07 01:46:32;;;;;;;4.95;1.75;;;;;;;;;;4997742;28;20037;-79
2021/10/07 01:48:58;;;;;;;6.93;1.70;;;;;;;;;;4996637;28;20038;-79
2021/10/07 01:51:24;;;;;;;3.28;1.73;;;;;;;;;;4998058;28;20512;-79
2021/10/07 01:53:50;;;;;;;5.63;2.20;;;;;;;;;;4997854;28;20042;-79
2021/10/07 01:56:16;;;;;;;7.50;2.08;;;;;;;;;;4997548;28;20035;-79
2021/10/07 01:58:42;;;;;;;4.47;2.10;;;;;;;;;;4997412;28;20040;-79
2021/10/07 02:01:08;;;;;;;5.50;1.92;;;;;;;;;;4997315;28;20027;-79
2021/10/07 02:03:34;;;;;;;7.40;2.20;;;;;;;;;;4988319;28;20578;-79
2021/10/07 02:06:00;;;;;;;8.45;2.67;;;;;;;;;;4996509;28;20046;-79
2021/10/07 02:08:26;;;;;;;4.90;2.20;;;;;;;;;;4996388;28;20077;-79
2021/10/07 02:10:52;;;;;;;10.57;2.70;;;;;;;;;;4997530;28;20028;-79
2021/10/07 02:13:18;;;;;;;7.47;2.47;;;;;;;;;;4997420;28;20398;-79
2021/10/07 02:15:44;;;;;;;5.97;2.05;;;;;;;;;;4997833;28;20117;-79
2021/10/07 02:18:10;;;;;;;6.07;2.28;;;;;;;;;;4997209;28;20033;-79
2021/10/07 02:20:37;;;;;;;11.63;2.50;;;;;;;;;;4997134;28;20023;-79
2021/10/07 02:23:03;;;;;;;9.80;2.50;;;;;;;;;;4997808;28;20101;-79
2021/10/07 02:25:31;;;;;;;8.18;2.25;;;;;;;;;;4997342;28;20030;-79
2021/10/07 02:27:56;;;;;;;6.18;2.22;;;;;;;;;;4996930;28;20487;-79
2021/10/07 02:30:22;;;;;;;5.55;2.20;;;;;;;;;;4998747;28;20098;-79
2021/10/07 02:32:49;;;;;;;6.28;2.55;;;;;;;;;;4998972;28;20037;-79
2021/10/07 02:35:15;;;;;;;5.65;2.58;;;;;;;;;;4996772;28;20062;-78
2021/10/07 02:37:42;;;;;;;9.73;2.70;;;;;;;;;;4995859;28;20022;-79
2021/10/07 02:40:09;;;;;;;5.80;2.92;;;;;;;;;;4978779;28;20134;-79
2021/10/07 02:42:35;;;;;;;8.38;3.45;;;;;;;;;;4994146;28;20023;-79
2021/10/07 02:45:01;;;;;;;9.27;3.25;;;;;;;;;;4996326;28;20084;-79
2021/10/07 02:47:27;;;;;;;8.48;2.40;;;;;;;;;;4994947;28;20032;-79
2021/10/07 02:49:53;;;;;;;6.97;2.60;;;;;;;;;;4996100;28;20089;-79
2021/10/07 02:52:19;;;;;;;7.45;3.75;;;;;;;;;;4994653;28;20026;-79
2021/10/07 02:54:45;;;;;;;8.40;3.35;;;;;;;;;;4996152;28;20033;-79
2021/10/07 02:57:11;;;;;;;9.90;3.08;;;;;;;;;;4995567;28;20478;-79
2021/10/07 02:59:37;;;;;;;7.93;2.95;;;;;;;;;;4995193;28;20042;-79
2021/10/07 03:02:03;;;;;;;7.22;2.95;;;;;;;;;;4995775;28;20038;-79
2021/10/07 03:04:29;;;;;;;9.18;3.70;;;;;;;;;;4995391;28;20498;-78
2021/10/07 03:06:55;;;;;;;5.18;2.70;;;;;;;;;;4995440;28;20034;-78
2021/10/07 03:09:21;;;;;;;4.85;2.95;;;;;;;;;;4995200;28;20121;-79
2021/10/07 03:11:47;;;;;;;8.13;3.15;;;;;;;;;;4995609;28;20061;-79
2021/10/07 03:14:13;;;;;;;8.90;2.67;;;;;;;;;;4995509;28;20089;-78
2021/10/07 03:16:39;;;;;;;9.18;3.38;;;;;;;;;;4995856;28;20023;-79
2021/10/07 03:19:06;;;;;;;9.23;2.92;;;;;;;;;;4995353;28;20034;-79
2021/10/07 03:21:32;;;;;;;11.23;4.15;;;;;;;;;;4995792;28;20073;-78
2021/10/07 03:23:58;;;;;;;6.88;4.32;;;;;;;;;;4995933;28;20065;-79
2021/10/07 03:26:24;;;;;;;12.80;3.40;;;;;;;;;;4994890;28;20038;-78
2021/10/07 03:28:50;;;;;;;10.20;3.47;;;;;;;;;;4995192;28;20035;-79
2021/10/07 03:31:16;;;;;;;8.73;3.60;;;;;;;;;;4995379;28;20558;-79
2021/10/07 03:33:42;;;;;;;7.90;3.40;;;;;;;;;;4995211;28;20038;-78
2021/10/07 03:36:08;;;;;;;10.45;4.00;;;;;;;;;;4994114;28;20475;-79
2021/10/07 03:38:34;;;;;;;7.72;3.40;;;;;;;;;;4994512;28;20067;-79
2021/10/07 03:41:00;;;;;;;12.15;3.85;;;;;;;;;;4993912;28;20069;-79
2021/10/07 03:43:26;;;;;;;7.57;4.10;;;;;;;;;;4995359;28;20038;-79
2021/10/07 03:45:52;;;;;;;7.20;3.83;;;;;;;;;;4995484;28;20027;-78
2021/10/07 03:48:18;;;;;;;7.95;4.15;;;;;;;;;;4995371;28;20053;-79
2021/10/07 03:50:44;;;;;;;13.50;3.65;;;;;;;;;;4994414;28;20030;-78
2021/10/07 03:53:10;;;;;;;7.43;3.88;;;;;;;;;;4995275;28;20100;-79
2021/10/07 03:55:36;;;;;;;8.48;3.75;;;;;;;;;;4995037;28;20032;-79
2021/10/07 03:58:02;;;;;;;10.20;3.80;;;;;;;;;;4994847;28;20113;-79
2021/10/07 04:00:29;;;;;;;8.43;3.65;;;;;;;;;;4995187;28;20089;-79
2021/10/07 04:02:57;;;;;;;7.90;3.60;;;;;;;;;;4995330;28;20026;-79
2021/10/07 04:05:23;;;;;;;8.32;3.17;;;;;;;;;;4993844;28;20046;-79
2021/10/07 04:07:49;;;;;;;7.03;3.67;;;;;;;;;;4995710;28;20054;-79
2021/10/07 04:10:15;;;;;;;6.65;3.55;;;;;;;;;;4995188;28;20033;-79
2021/10/07 04:12:42;;;;;;;6.78;3.50;;;;;;;;;;4995215;28;20030;-79
2021/10/07 04:15:08;;;;;;;9.48;3.70;;;;;;;;;;4995619;28;20026;-78
2021/10/07 04:17:34;;;;;;;9.85;3.60;;;;;;;;;;4995596;28;20022;-79
2021/10/07 04:20:00;;;;;;;5.50;3.35;;;;;;;;;;4994404;28;20038;-79
2021/10/07 04:22:26;;;;;;;8.50;3.90;;;;;;;;;;4995706;28;20046;-80
2021/10/07 04:24:52;;;;;;;5.97;3.70;;;;;;;;;;4994550;28;20023;-79
2021/10/07 04:27:18;;;;;;;9.38;4.00;;;;;;;;;;4995892;28;20034;-79
2021/10/07 04:29:44;;;;;;;5.30;3.13;;;;;;;;;;4995379;28;20023;-79
2021/10/07 04:32:10;;;;;;;10.50;4.10;;;;;;;;;;4995520;28;20149;-79
2021/10/07 04:34:36;;;;;;;6.15;3.80;;;;;;;;;;4997006;28;20027;-81
2021/10/07 04:37:02;;;;;;;8.38;4.00;;;;;;;;;;5000468;28;20472;-80
2021/10/07 04:39:28;;;;;;;10.07;3.78;;;;;;;;;;5009303;28;20446;-80
2021/10/07 04:41:55;;;;;;;5.88;3.67;;;;;;;;;;5016202;28;20038;-80
2021/10/07 04:44:21;;;;;;;6.28;3.60;;;;;;;;;;4999878;28;20157;-80
2021/10/07 04:46:47;;;;;;;7.55;4.00;;;;;;;;;;4998806;28;20023;-79
2021/10/07 04:49:13;;;;;;;8.57;3.55;;;;;;;;;;5002814;28;20109;-79
2021/10/07 04:51:39;;;;;;;8.85;3.60;;;;;;;;;;5004064;28;20058;-79
2021/10/07 04:54:05;;;;;;;7.72;4.00;;;;;;;;;;5003447;28;20054;-79
2021/10/07 04:56:31;;;;;;;9.10;4.75;;;;;;;;;;5001870;28;20025;-79
2021/10/07 04:58:57;;;;;;;11.90;4.32;;;;;;;;;;4998890;28;20030;-80
2021/10/07 05:01:23;;;;;;;6.85;4.32;;;;;;;;;;4999846;28;20031;-79
2021/10/07 05:03:50;;;;;;;9.77;4.68;;;;;;;;;;4999046;28;20506;-79
2021/10/07 05:06:16;;;;;;;7.22;4.22;;;;;;;;;;5000188;28;20058;-79
2021/10/07 05:08:42;;;;;;;9.00;4.78;;;;;;;;;;4998728;28;20034;-79
2021/10/07 05:11:08;;;;;;;6.57;4.28;;;;;;;;;;4998789;28;20094;-79
2021/10/07 05:13:34;;;;;;;8.20;5.00;;;;;;;;;;4998946;28;20406;-80
2021/10/07 05:16:00;;;;;;;10.05;5.28;;;;;;;;;;4998617;28;20461;-80
2021/10/07 05:18:26;;;;;;;6.95;4.88;;;;;;;;;;5001037;28;20030;-79
2021/10/07 05:20:53;;;;;;;9.25;5.30;;;;;;;;;;5001481;28;20046;-79
2021/10/07 05:23:19;;;;;;;8.90;5.15;;;;;;;;;;5001558;28;20026;-79
2021/10/07 05:25:47;;;;;;;12.23;5.45;;;;;;;;;;4998280;28;20031;-79
2021/10/07 05:28:13;;;;;;;9.85;5.50;;;;;;;;;;4998425;28;20037;-80
2021/10/07 05:30:39;;;;;;;10.13;5.40;;;;;;;;;;4998843;28;20034;-79
2021/10/07 05:33:05;;;;;;;10.95;6.28;;;;;;;;;;4999452;28;20026;-79
2021/10/07 05:35:31;;;;;;;14.43;9.07;;;;;;;;;;4998967;28;20049;-79
2021/10/07 05:37:57;;;;;;;15.15;7.90;;;;;;;;;;4998867;28;20460;-80
2021/10/07 05:40:23;;;;;;;12.10;7.63;;;;;;;;;;4998340;28;20054;-79
2021/10/07 05:42:49;;;;;;;9.07;7.15;;;;;;;;;;4998596;28;20487;-80
2021/10/07 05:45:15;;;;;;;11.93;7.43;;;;;;;;;;4997498;28;20033;-80
2021/10/07 05:47:42;;;;;;;12.40;7.65;;;;;;;;;;5003021;28;20649;-79
2021/10/07 05:50:09;;;;;;;15.82;8.23;;;;;;;;;;5002953;28;20033;-79
2021/10/07 05:52:36;;;;;;;13.68;7.25;;;;;;;;;;5003978;28;20027;-79
2021/10/07 05:55:03;;;;;;;14.00;7.93;;;;;;;;;;5003526;28;20372;-79
2021/10/07 05:57:29;;;;;;;12.25;8.60;;;;;;;;;;5002845;28;20031;-79
2021/10/07 05:59:55;;;;;;;15.98;9.50;;;;;;;;;;4999753;28;20035;-79
2021/10/07 06:02:20;;;;;;;15.15;8.20;;;;;;;;;;4996520;28;20454;-80
2021/10/07 06:04:46;;;;;;;11.55;7.60;;;;;;;;;;4998329;28;20058;-80
2021/10/07 06:07:12;;;;;;;11.75;7.20;;;;;;;;;;4997974;28;20030;-79
2021/10/07 06:09:39;;;;;;;15.20;7.82;;;;;;;;;;4997476;28;20049;-80
2021/10/07 06:12:05;;;;;;;11.45;7.05;;;;;;;;;;4980587;28;20026;-79
2021/10/07 06:14:31;;;;;;;10.32;7.45;;;;;;;;;;4996023;28;20125;-80
2021/10/07 06:16:57;;;;;;;8.25;5.97;;;;;;;;;;4997480;28;20050;-79
2021/10/07 06:19:25;;;;;;;10.88;6.70;;;;;;;;;;4997117;28;20518;-79
2021/10/07 06:21:52;;;;;;;10.20;6.20;;;;;;;;;;4998313;28;20054;-79
2021/10/07 06:24:18;;;;;;;16.88;6.75;;;;;;;;;;4997731;28;20104;-79
2021/10/07 06:26:44;;;;;;;12.30;6.32;;;;;;;;;;4997704;28;20034;-80
2021/10/07 06:29:11;;;;;;;12.27;7.20;;;;;;;;;;4997071;28;20050;-79
2021/10/07 06:31:38;;;;;;;10.60;6.70;;;;;;;;;;4996973;28;20030;-80
2021/10/07 06:34:04;;;;;;;12.68;6.38;;;;;;;;;;4992373;28;20042;-79
2021/10/07 06:36:30;;;;;;;10.75;6.05;;;;;;;;;;4997312;28;20086;-79
2021/10/07 06:38:56;;;;;;;8.18;5.28;;;;;;;;;;4996998;28;20037;-79
2021/10/07 06:41:23;;;;;;;7.70;4.65;;;;;;;;;;4997591;28;20134;-79
2021/10/07 06:43:49;;;;;;;7.80;4.90;;;;;;;;;;4997231;28;20034;-79
2021/10/07 06:46:15;;;;;;;8.55;4.88;;;;;;;;;;4996971;28;20092;-80
2021/10/07 06:48:41;;;;;;;9.52;5.35;;;;;;;;;;4995031;28;20721;-80
2021/10/07 06:51:11;;;;;;;8.98;5.32;;;;;;;;;;4996658;28;20034;-79
2021/10/07 06:53:38;;;;;;;11.07;7.45;;;;;;;;;;4996759;28;20027;-80
2021/10/07 06:56:05;;;;;;;7.57;4.88;;;;;;;;;;4997249;28;20061;-81
2021/10/07 06:58:31;;;;;;;6.22;4.75;;;;;;;;;;4995864;28;20034;-81
2021/10/07 07:00:57;;;;;;;8.68;4.90;;;;;;;;;;4997162;28;20032;-80
2021/10/07 07:03:23;;;;;;;9.73;4.60;;;;;;;;;;4996744;28;20046;-79
2021/10/07 07:05:49;;;;;;;7.38;3.90;;;;;;;;;;4995013;28;20049;-78
2021/10/07 07:08:15;;;;;;;8.73;4.10;;;;;;;;;;4994800;28;20435;-81
2021/10/07 07:10:41;;;;;;;5.90;4.03;;;;;;;;;;4994440;28;20041;-79
2021/10/07 07:13:07;;;;;;;7.85;4.70;;;;;;;;;;4994868;28;20447;-81
2021/10/07 07:15:35;;;;;;;6.75;3.90;;;;;;;;;;4994957;28;20387;-79
2021/10/07 07:18:01;;;;;;;7.22;3.95;;;;;;;;;;4995239;28;20030;-79
2021/10/07 07:20:27;;;;;;;7.78;3.80;;;;;;;;;;4994591;28;20034;-79
2021/10/07 07:22:53;;;;;;;6.25;3.55;;;;;;;;;;4996390;28;20098;-79
2021/10/07 07:25:19;;;;;;;7.18;4.10;;;;;;;;;;4995201;28;20042;-78
2021/10/07 07:27:45;;;;;;;6.15;3.40;;;;;;;;;;4996156;28;20043;-79
2021/10/07 07:30:12;;;;;;;6.07;3.30;;;;;;;;;;4995832;28;20042;-80
2021/10/07 07:32:39;;;;;;;5.55;3.15;;;;;;;;;;4996862;28;20034;-79
2021/10/07 07:35:05;;;;;;;7.57;3.50;;;;;;;;;;4997255;28;20101;-79
2021/10/07 07:37:31;;;;;;;6.55;3.50;;;;;;;;;;4995905;28;20034;-83
2021/10/07 07:39:57;;;;;;;9.13;3.40;;;;;;;;;;4996135;28;20022;-80
2021/10/07 07:42:24;;;;;;;5.55;3.15;;;;;;;;;;4996175;28;20109;-80
2021/10/07 07:44:50;;;;;;;7.63;3.75;;;;;;;;;;4996859;28;20583;-80
2021/10/07 07:47:16;;;;;;;6.53;4.03;;;;;;;;;;4996051;28;20034;-80
2021/10/07 07:49:42;;;;;;;5.63;3.85;;;;;;;;;;4995697;28;20026;-80
2021/10/07 07:52:09;;;;;;;7.97;3.90;;;;;;;;;;4995818;28;20047;-80
2021/10/07 07:54:35;;;;;;;6.70;4.22;;;;;;;;;;4995887;28;20023;-80
2021/10/07 07:57:01;;;;;;;8.93;4.18;;;;;;;;;;4978084;28;20133;-80
2021/10/07 07:59:28;;;;;;;6.13;3.95;;;;;;;;;;4994500;28;20049;-80
2021/10/07 08:01:54;;;;;;;5.03;3.30;;;;;;;;;;4996205;28;20086;-80
2021/10/07 08:04:20;;;;;;;7.28;4.18;;;;;;;;;;4996637;28;20034;-80
2021/10/07 08:06:46;;;;;;;7.15;3.90;;;;;;;;;;5003819;28;20023;-80
2021/10/07 08:09:12;;;;;;;7.30;4.10;;;;;;;;;;4994192;28;20035;-80
2021/10/07 08:11:41;;;;;;;8.15;4.28;;;;;;;;;;4995690;28;20026;-80
2021/10/07 08:14:08;;;;;;;6.95;4.05;;;;;;;;;;5011291;28;20034;-80
2021/10/07 08:16:34;;;;;;;7.88;4.07;;;;;;;;;;5016109;28;20042;-80
2021/10/07 08:19:00;;;;;;;7.57;4.13;;;;;;;;;;5010643;28;20663;-80
2021/10/07 08:21:27;;;;;;;9.05;4.07;;;;;;;;;;4990155;28;20034;-79
2021/10/07 08:23:54;;;;;;;5.20;3.30;;;;;;;;;;4981987;28;20038;-78
2021/10/07 08:26:20;;;;;;;7.22;4.00;;;;;;;;;;4999195;28;20030;-78
2021/10/07 08:28:46;;;;;;;5.57;4.20;;;;;;;;;;4998148;28;20117;-78
2021/10/07 08:31:13;;;;;;;6.75;4.18;;;;;;;;;;4997431;28;20034;-78
2021/10/07 08:33:39;;;;;;;8.52;4.10;;;;;;;;;;5000383;28;20473;-79
2021/10/07 08:36:05;;;;;;;8.73;4.63;;;;;;;;;;4999823;28;20031;-79
2021/10/07 08:38:32;;;;;;;9.43;4.60;;;;;;;;;;4986440;28;20101;-79
2021/10/07 08:40:58;;;;;;;7.95;4.50;;;;;;;;;;5007657;28;20086;-79
2021/10/07 08:43:25;;;;;;;7.00;3.78;;;;;;;;;;5011512;28;20030;-79
2021/10/07 08:45:51;;;;;;;7.13;4.10;;;;;;;;;;5010361;28;20037;-79
2021/10/07 08:48:17;;;;;;;5.15;3.95;;;;;;;;;;5010379;28;20407;-79
2021/10/07 08:50:43;;;;;;;6.88;3.90;;;;;;;;;;4996332;28;20034;-80
2021/10/07 08:53:09;;;;;;;12.30;5.78;;;;;;;;;;4993938;28;20030;-79
2021/10/07 08:55:35;;;;;;;7.72;4.53;;;;;;;;;;4999849;28;20041;-79
2021/10/07 08:58:01;;;;;;;7.25;4.07;;;;;;;;;;5000275;28;20041;-79
2021/10/07 09:00:27;;;;;;;5.57;3.50;;;;;;;;;;4997657;28;20114;-79
2021/10/07 09:02:56;;;;;;;7.30;3.30;;;;;;;;;;5000360;28;20623;-79
2021/10/07 09:05:23;;;;;;;6.93;2.92;;;;;;;;;;5000213;28;20089;-79
2021/10/07 09:07:56;;;;;;;8.38;3.50;;;;;;;;;;5004871;28;20022;-78
2021/10/07 09:10:35;;;;;;;5.95;2.90;;;;;;;;;;4987710;28;20030;-79
2021/10/07 09:13:05;;;;;;;2.95;2.17;;;;;;;;;;5001411;28;20097;-79
2021/10/07 09:15:31;;;;;;;6.93;2.60;;;;;;;;;;5001093;28;20022;-79
2021/10/07 09:18:02;;;;;;;5.65;2.78;;;;;;;;;;4998475;28;20384;-79
2021/10/07 09:20:38;;;;;;;6.45;2.58;;;;;;;;;;4998929;28;20022;-79
2021/10/07 09:23:09;;;;;;;7.75;2.83;;;;;;;;;;4999983;28;20050;-79
2021/10/07 09:25:56;;;;;;;8.00;3.20;;;;;;;;;;4982518;28;20027;-80
2021/10/07 09:28:22;;;;;;;5.45;3.17;;;;;;;;;;4999579;28;20023;-79
2021/10/07 09:30:58;;;;;;;4.50;2.80;;;;;;;;;;4999793;28;20035;-80
2021/10/07 09:33:29;;;;;;;7.32;2.47;;;;;;;;;;5000682;28;20038;-79
2021/10/07 09:36:13;;;;;;;6.55;2.78;;;;;;;;;;5002629;28;20023;-80
2021/10/07 09:38:40;;;;;;;4.40;3.15;;;;;;;;;;5007772;28;20077;-80
2021/10/07 09:41:10;;;;;;;5.32;2.90;;;;;;;;;;5015698;28;20031;-80
2021/10/07 09:43:43;;;;;;;6.75;2.67;;;;;;;;;;5001645;28;20061;-81
2021/10/07 09:46:09;;;;;;;3.40;2.40;;;;;;;;;;4996835;28;20027;-80
2021/10/07 09:48:43;;;;;;;11.13;3.00;;;;;;;;;;4996723;28;20033;-80
2021/10/07 09:51:12;;;;;;;4.45;2.70;;;;;;;;;;4982274;28;20030;-81
2021/10/07 09:53:42;;;;;;;3.75;2.53;;;;;;;;;;4996493;28;20551;-81
2021/10/07 09:56:08;;;;;;;4.68;2.33;;;;;;;;;;4996293;28;20117;-81
2021/10/07 09:58:42;;;;;;;7.50;2.85;;;;;;;;;;4995638;28;20096;-80
2021/10/07 10:01:08;;;;;;;7.50;2.90;;;;;;;;;;4996316;28;20475;-79
2021/10/07 10:03:35;;;;;;;5.70;3.10;;;;;;;;;;4998850;28;20038;-80
2021/10/07 10:06:01;;;;;;;5.82;2.95;;;;;;;;;;4998827;28;20037;-80
2021/10/07 10:08:28;;;;;;;7.60;2.90;;;;;;;;;;5000777;28;20030;-81
2021/10/07 10:10:54;;;;;;;7.13;2.70;;;;;;;;;;5006041;28;20049;-81
2021/10/07 10:13:20;;;;;;;3.85;2.45;;;;;;;;;;5007280;28;20038;-80
2021/10/07 10:15:46;;;;;;;7.45;3.72;;;;;;;;;;5007681;28;20026;-80
2021/10/07 10:18:13;;;;;;;7.00;2.97;;;;;;;;;;5006133;28;20041;-81
2021/10/07 10:20:51;;;;;;;7.78;3.00;;;;;;;;;;4995401;28;20037;-82
2021/10/07 10:23:18;;;;;;;4.88;2.35;;;;;;;;;;5005027;28;20027;-82
2021/10/07 10:26:02;;;;;;;5.20;3.00;;;;;;;;;;5006043;28;20026;-81
2021/10/07 10:29:13;;;;;;;7.40;2.85;;;;;;;;;;4994552;28;20114;-79
2021/10/07 10:31:35;;;;;;;5.65;2.92;;;;;;;;;;4983781;28;20031;-79
2021/10/07 10:34:03;;;;;;;7.45;2.90;;;;;;;;;;5001686;28;20459;-79
2021/10/07 10:36:32;;;;;;;3.83;1.98;;;;;;;;;;4988061;28;20035;-79
2021/10/07 10:39:10;;;;;;;4.60;2.33;;;;;;;;;;5003764;28;20022;-81
2021/10/07 10:42:02;;;;;;;4.78;2.30;;;;;;;;;;5010270;28;20038;-81
2021/10/07 10:44:28;;;;;;;2.63;1.90;;;;;;;;;;5001928;28;20043;-82
2021/10/07 10:47:01;;;;;;;6.03;2.00;;;;;;;;;;5006016;28;20038;-82
2021/10/07 10:49:50;;;;;;;2.72;1.90;;;;;;;;;;4996941;28;20042;-79
2021/10/07 10:52:25;;;;;;;6.68;1.60;;;;;;;;;;5006310;28;20073;-82
2021/10/07 10:54:52;;;;;;;3.67;1.88;;;;;;;;;;5005719;28;20037;-81
2021/10/07 10:57:26;;;;;;;4.35;1.85;;;;;;;;;;4988012;28;20030;-81
2021/10/07 11:00:04;;;;;;;6.10;1.80;;;;;;;;;;5004411;28;20036;-82
2021/10/07 11:02:30;;;;;;;4.80;1.77;;;;;;;;;;5005769;28;20022;-82
2021/10/07 11:04:57;;;;;;;4.88;2.08;;;;;;;;;;5005410;28;20523;-82
2021/10/07 11:07:33;;;;;;;2.22;1.40;;;;;;;;;;5018432;28;20038;-82
2021/10/07 11:10:02;;;;;;;2.75;1.50;;;;;;;;;;5000400;28;20030;-81
2021/10/07 11:12:48;;;;;;;3.58;1.60;;;;;;;;;;4996580;28;20038;-81
2021/10/07 11:15:14;;;;;;;3.42;1.45;;;;;;;;;;4995114;28;20026;-81
2021/10/07 11:17:41;;;;;;;3.35;1.65;;;;;;;;;;4979198;28;20026;-82
2021/10/07 11:20:08;;;;;;;2.55;1.30;;;;;;;;;;4994245;28;20026;-82
2021/10/07 11:22:34;;;;;;;2.65;1.40;;;;;;;;;;4978767;28;20038;-81
2021/10/07 11:25:00;;;;;;;2.55;1.27;;;;;;;;;;4994796;28;20427;-81
2021/10/07 11:27:33;;;;;;;1.50;1.20;;;;;;;;;;4994805;28;20030;-81
2021/10/07 11:29:59;;;;;;;5.10;1.20;;;;;;;;;;4993984;28;20117;-82
2021/10/07 11:32:25;;;;;;;2.22;1.20;;;;;;;;;;4995167;28;20069;-82
2021/10/07 11:34:58;;;;;;;2.10;1.08;;;;;;;;;;4995855;28;20065;-81
2021/10/07 11:37:24;;;;;;;5.30;1.35;;;;;;;;;;4996098;28;20030;-81
2021/10/07 11:39:50;;;;;;;3.13;1.60;;;;;;;;;;4997535;28;20116;-81
2021/10/07 11:42:35;;;;;;;1.77;1.20;;;;;;;;;;4997841;28;20039;-81
2021/10/07 11:45:01;;;;;;;2.17;1.27;;;;;;;;;;4997033;28;20030;-81
2021/10/07 11:47:31;;;;;;;4.70;1.75;;;;;;;;;;4997654;28;20045;-81
2021/10/07 11:50:17;;;;;;;2.83;1.40;;;;;;;;;;4993959;28;20023;-81
2021/10/07 11:52:43;;;;;;;2.35;1.30;;;;;;;;;;4976300;28;20037;-81
2021/10/07 11:55:12;;;;;;;4.60;1.48;;;;;;;;;;4993693;28;20105;-82
2021/10/07 11:57:45;;;;;;;2.78;1.40;;;;;;;;;;4994305;28;20027;-81
2021/10/07 12:00:11;;;;;;;2.55;1.20;;;;;;;;;;4993435;28;20034;-81
2021/10/07 12:02:37;;;;;;;1.63;1.20;;;;;;;;;;4994542;28;20369;-81
2021/10/07 12:05:19;;;;;;;2.50;1.10;;;;;;;;;;4994428;28;20047;-82
2021/10/07 12:08:08;;;;;;;1.10;1.00;;;;;;;;;;4993871;28;20027;-81
2021/10/07 12:10:42;;;;;;;2.60;1.20;;;;;;;;;;4986350;28;20514;-81
2021/10/07 12:13:18;;;;;;;2.65;1.20;;;;;;;;;;4994222;28;20022;-82
2021/10/07 12:15:46;;;;;;;1.88;1.17;;;;;;;;;;4994087;28;20046;-81
2021/10/07 12:18:12;;;;;;;2.42;1.10;;;;;;;;;;4994030;28;20047;-81
2021/10/07 12:20:39;;;;;;;1.83;1.20;;;;;;;;;;4993962;28;20026;-81
2021/10/07 12:23:05;;;;;;;1.75;1.20;;;;;;;;;;5003429;28;20121;-82
2021/10/07 12:25:41;;;;;;;3.60;1.10;;;;;;;;;;4993988;28;20034;-81
2021/10/07 12:28:13;;;;;;;3.35;1.05;;;;;;;;;;4993631;28;20053;-81
2021/10/07 12:30:48;;;;;;;2.38;1.10;;;;;;;;;;4993655;28;20485;-82
2021/10/07 12:33:14;;;;;;;2.05;1.00;;;;;;;;;;4994246;28;20066;-82
2021/10/07 12:35:52;;;;;;;1.98;1.10;;;;;;;;;;4994114;28;20483;-82
2021/10/07 12:38:18;;;;;;;6.03;1.25;;;;;;;;;;4994198;28;20471;-82
2021/10/07 12:40:50;;;;;;;2.47;1.20;;;;;;;;;;4992685;28;20037;-82
2021/10/07 12:43:16;;;;;;;2.95;1.38;;;;;;;;;;4993949;28;20423;-82
2021/10/07 12:46:02;;;;;;;2.20;1.08;;;;;;;;;;4994283;28;20026;-82
2021/10/07 12:48:43;;;;;;;3.42;1.33;;;;;;;;;;4993765;28;20034;-82
2021/10/07 12:51:10;;;;;;;6.85;1.20;;;;;;;;;;4978346;28;20027;-81
2021/10/07 12:53:37;;;;;;;3.28;1.20;;;;;;;;;;4992703;28;20046;-81
2021/10/07 12:56:13;;;;;;;1.30;0.85;;;;;;;;;;4994120;28;20395;-81
2021/10/07 12:58:49;;;;;;;1.73;1.20;;;;;;;;;;4996958;28;20057;-82
2021/10/07 13:01:17;;;;;;;3.10;1.00;;;;;;;;;;4997829;28;20073;-81
2021/10/07 13:03:43;;;;;;;1.88;0.98;;;;;;;;;;5004632;28;20398;-82
2021/10/07 13:06:25;;;;;;;3.55;1.00;;;;;;;;;;5003862;28;20046;-81
2021/10/07 13:08:51;;;;;;;2.83;0.77;;;;;;;;;;5003862;28;20038;-81
2021/10/07 13:11:17;;;;;;;1.15;0.88;;;;;;;;;;4997996;28;20061;-82
2021/10/07 13:13:43;;;;;;;2.05;0.88;;;;;;;;;;4996748;28;20031;-82
2021/10/07 13:16:09;;;;;;;3.03;0.70;;;;;;;;;;4997399;28;20686;-82
2021/10/07 13:18:35;;;;;;;1.95;0.70;;;;;;;;;;4995248;28;20114;-82
2021/10/07 13:21:02;;;;;;;4.38;0.80;;;;;;;;;;4996528;28;20065;-82
2021/10/07 13:23:27;;;;;;;2.17;0.77;;;;;;;;;;4992757;28;20030;-82
2021/10/07 13:25:53;;;;;;;4.28;0.98;;;;;;;;;;4993067;28;20092;-81
2021/10/07 13:28:19;;;;;;;1.45;0.80;;;;;;;;;;5005566;28;20035;-81
2021/10/07 13:30:45;;;;;;;1.65;0.98;;;;;;;;;;4999591;28;20022;-82
2021/10/07 13:33:11;;;;;;;1.98;1.00;;;;;;;;;;4995896;28;20034;-82
2021/10/07 13:35:37;;;;;;;1.67;1.02;;;;;;;;;;4995079;28;20030;-81
2021/10/07 13:38:04;;;;;;;1.98;1.10;;;;;;;;;;4994789;28;20026;-81
2021/10/07 13:40:30;;;;;;;2.55;0.90;;;;;;;;;;4978580;28;20491;-81
2021/10/07 13:42:59;;;;;;;2.83;1.17;;;;;;;;;;4996101;28;20038;-81
2021/10/07 13:45:25;;;;;;;1.35;0.90;;;;;;;;;;4996702;28;20022;-81
2021/10/07 13:47:54;;;;;;;1.42;0.93;;;;;;;;;;4996701;28;20034;-81
2021/10/07 13:50:20;;;;;;;1.33;0.77;;;;;;;;;;4996641;28;20557;-81
2021/10/07 13:52:46;;;;;;;1.92;1.10;;;;;;;;;;4999948;28;20086;-81
2021/10/07 13:55:12;;;;;;;3.45;1.00;;;;;;;;;;5004749;28;20085;-81
2021/10/07 13:57:38;;;;;;;2.00;0.82;;;;;;;;;;5003857;28;20092;-81
2021/10/07 14:00:05;;;;;;;1.15;0.90;;;;;;;;;;4999922;28;20447;-81
2021/10/07 14:02:32;;;;;;;2.80;1.23;;;;;;;;;;4996253;28;20027;-79
2021/10/07 14:04:58;;;;;;;2.03;1.10;;;;;;;;;;4996086;28;20038;-79
2021/10/07 14:07:24;;;;;;;2.88;1.23;;;;;;;;;;4999409;28;20375;-81
2021/10/07 14:09:50;;;;;;;1.20;1.00;;;;;;;;;;4995434;28;20034;-81
2021/10/07 14:12:16;;;;;;;1.63;1.00;;;;;;;;;;4995677;28;20033;-81
2021/10/07 14:14:42;;;;;;;2.38;1.13;;;;;;;;;;4995405;28;20018;-81
2021/10/07 14:17:08;;;;;;;1.92;1.30;;;;;;;;;;4995969;28;20022;-81
2021/10/07 14:19:34;;;;;;;3.08;1.17;;;;;;;;;;4995228;28;20372;-82
2021/10/07 14:22:01;;;;;;;3.30;1.23;;;;;;;;;;4996555;28;20566;-81
2021/10/07 14:24:27;;;;;;;2.75;1.27;;;;;;;;;;4996007;28;20454;-81
2021/10/07 14:26:52;;;;;;;2.10;0.88;;;;;;;;;;4995193;28;20034;-81
2021/10/07 14:29:19;;;;;;;1.75;0.90;;;;;;;;;;4995581;28;20053;-81
2021/10/07 14:31:45;;;;;;;2.78;0.88;;;;;;;;;;4996711;28;20037;-81
2021/10/07 14:34:11;;;;;;;1.10;0.90;;;;;;;;;;4995596;28;20037;-81
2021/10/07 14:36:37;;;;;;;1.48;0.80;;;;;;;;;;4994821;28;20100;-81
2021/10/07 14:39:03;;;;;;;3.22;1.20;;;;;;;;;;4997742;28;20554;-81
2021/10/07 14:41:30;;;;;;;3.83;1.08;;;;;;;;;;5001565;28;20034;-81
2021/10/07 14:43:56;;;;;;;2.20;1.23;;;;;;;;;;4987990;28;20030;-81
2021/10/07 14:46:25;;;;;;;3.15;1.25;;;;;;;;;;4997722;28;20039;-82
2021/10/07 14:48:51;;;;;;;2.45;0.93;;;;;;;;;;4987682;28;20034;-81